KCKZ

Pennridge Airport

Perkasie, Pennsylvania, USA
METAR KCKZ 240455Z AUTO 27006KT 10SM CLR 07/03 A3005 RMK AO2
Observed Flight Rules
Oct-24 @ 04:55 UTC (7 minutes ago) Visual Flight Rules
Wind Visibility Clouds
270° at 6 knots 10 miles
  • Clear skies
Temperatures Readings
Current 7°C / 45°F
Dewpoint 3°C / 37°F
Humidity 76%
Altimeter 30.05" Hg
Pressure 1018 hPa
Elevation 173
METAR KCKZ 240455Z AUTO 27006KT 10SM CLR 07/03 A3005 RMK AO2
Observed Flight Rules
Oct-24 @ 04:55 UTC
(7 minutes ago)
VFR
Wind Visibility
270° at 6 knots 10 miles
Clouds
  • Clear skies
Temperature Dewpoint
7°C / 45°F 3°C / 37°F
Humidity Altimeter Pressure
76% 30.05" Hg 1018 hPa